createdAt,value
2023-03-17T00:01:40.810Z,100.00
2023-03-17T00:04:11.504Z,100.00
2023-03-17T00:06:38.472Z,100.00
2023-03-17T00:09:07.320Z,100.00
2023-03-17T00:11:33.661Z,100.00
2023-03-17T00:13:59.996Z,100.00
2023-03-17T00:16:26.921Z,100.00
2023-03-17T00:18:55.147Z,100.00
2023-03-17T00:21:29.567Z,100.00
2023-03-17T00:23:57.054Z,100.00
2023-03-17T00:26:24.506Z,100.00
2023-03-17T00:28:51.487Z,100.00
2023-03-17T00:31:23.898Z,100.00
2023-03-17T00:33:53.168Z,100.00
2023-03-17T00:36:34.185Z,100.00
2023-03-17T00:39:00.811Z,100.00
2023-03-17T00:41:27.278Z,100.00
2023-03-17T00:43:54.015Z,100.00
2023-03-17T00:46:31.041Z,100.00
2023-03-17T00:48:57.525Z,100.00
2023-03-17T00:51:23.849Z,100.00
2023-03-17T00:53:50.288Z,100.00
2023-03-17T00:56:19.129Z,100.00
2023-03-17T00:58:46.066Z,100.00
2023-03-17T01:01:12.545Z,100.00
2023-03-17T01:03:40.101Z,100.00
2023-03-17T01:06:10.186Z,100.00
2023-03-17T01:08:37.650Z,100.00
2023-03-17T01:11:04.269Z,100.00
2023-03-17T01:13:30.849Z,100.00
2023-03-17T01:15:57.268Z,100.00
2023-03-17T01:18:23.897Z,100.00
2023-03-17T01:20:51.038Z,100.00
2023-03-17T01:23:19.134Z,100.00
2023-03-17T01:25:45.578Z,100.00
2023-03-17T01:28:17.580Z,100.00
2023-03-17T01:30:52.048Z,100.00
2023-03-17T01:33:18.538Z,100.00
2023-03-17T01:35:44.907Z,100.00
2023-03-17T01:38:11.790Z,100.00
2023-03-17T01:40:44.008Z,100.00
2023-03-17T01:43:10.646Z,100.00
2023-03-17T01:46:05.449Z,100.00
2023-03-17T01:48:38.055Z,100.00
2023-03-17T01:51:06.909Z,100.00
2023-03-17T01:53:35.895Z,100.00
2023-03-17T01:56:03.897Z,100.00
2023-03-17T01:58:32.150Z,100.00
2023-03-17T02:00:58.875Z,100.00
2023-03-17T02:03:25.774Z,100.00
2023-03-17T02:05:53.583Z,100.00
2023-03-17T02:08:20.259Z,100.00
2023-03-17T02:10:49.255Z,100.00
2023-03-17T02:13:16.983Z,100.00
2023-03-17T02:15:49.928Z,100.00
2023-03-17T02:18:19.518Z,100.00
2023-03-17T02:20:45.926Z,100.00
2023-03-17T02:23:15.416Z,100.00
2023-03-17T02:25:44.626Z,100.00
2023-03-17T02:28:15.405Z,100.00
2023-03-17T02:30:42.965Z,100.00
2023-03-17T02:33:10.776Z,100.00
2023-03-17T02:35:40.151Z,100.00
2023-03-17T02:38:06.596Z,100.00
2023-03-17T02:40:33.329Z,100.00
2023-03-17T02:43:00.490Z,100.00
2023-03-17T02:45:26.903Z,100.00
2023-03-17T02:47:54.887Z,100.00
2023-03-17T02:50:26.363Z,100.00
2023-03-17T02:52:53.288Z,100.00
2023-03-17T02:55:20.029Z,100.00
2023-03-17T02:57:47.780Z,100.00
2023-03-17T03:00:14.772Z,100.00
2023-03-17T03:02:41.298Z,100.00
2023-03-17T03:05:08.432Z,100.00
2023-03-17T03:07:35.088Z,100.00
2023-03-17T03:10:01.431Z,100.00
2023-03-17T03:12:28.389Z,100.00
2023-03-17T03:14:55.216Z,100.00
2023-03-17T03:17:21.954Z,100.00
2023-03-17T03:19:48.350Z,100.00
2023-03-17T03:22:14.749Z,100.00
2023-03-17T03:24:41.355Z,100.00
2023-03-17T03:27:08.150Z,100.00
2023-03-17T03:29:34.674Z,100.00
2023-03-17T03:32:01.128Z,100.00
2023-03-17T03:34:27.540Z,100.00
2023-03-17T03:36:54.022Z,100.00
2023-03-17T03:39:20.352Z,100.00
2023-03-17T03:41:46.725Z,100.00
2023-03-17T03:44:13.075Z,100.00
2023-03-17T03:46:39.514Z,100.00
2023-03-17T03:49:05.928Z,100.00
2023-03-17T03:51:32.272Z,100.00
2023-03-17T03:53:58.855Z,100.00
2023-03-17T03:56:25.353Z,100.00
2023-03-17T03:58:52.296Z,100.00
2023-03-17T04:01:19.058Z,100.00
2023-03-17T04:03:45.675Z,100.00
2023-03-17T04:06:13.554Z,100.00
2023-03-17T04:08:40.270Z,100.00
2023-03-17T04:11:06.695Z,100.00
2023-03-17T04:13:35.292Z,100.00
2023-03-17T04:16:04.620Z,100.00
2023-03-17T04:18:31.445Z,100.00
2023-03-17T04:20:59.072Z,100.00
2023-03-17T04:23:25.514Z,100.00
2023-03-17T04:25:54.977Z,100.00
2023-03-17T04:28:21.510Z,100.00
2023-03-17T04:30:47.953Z,100.00
2023-03-17T04:33:15.045Z,100.00
2023-03-17T04:35:41.526Z,100.00
2023-03-17T04:38:10.780Z,100.00
2023-03-17T04:40:37.930Z,100.00
2023-03-17T04:43:05.851Z,100.00
2023-03-17T04:45:33.488Z,100.00
2023-03-17T04:48:00.259Z,100.00
2023-03-17T04:50:27.053Z,100.00
2023-03-17T04:52:54.846Z,100.00
2023-03-17T04:55:21.415Z,100.00
2023-03-17T04:57:48.100Z,100.00
2023-03-17T05:00:14.874Z,100.00
2023-03-17T05:02:41.478Z,100.00
2023-03-17T05:05:08.029Z,100.00
2023-03-17T05:07:35.237Z,100.00
2023-03-17T05:10:01.808Z,100.00
2023-03-17T05:12:28.549Z,100.00
2023-03-17T05:14:54.993Z,100.00
2023-03-17T05:17:21.372Z,100.00
2023-03-17T05:19:48.167Z,100.00
2023-03-17T05:22:14.579Z,100.00
2023-03-17T05:24:40.998Z,100.00
2023-03-17T05:27:07.533Z,100.00
2023-03-17T05:29:36.156Z,100.00
2023-03-17T05:32:10.714Z,100.00
2023-03-17T05:34:37.695Z,100.00
2023-03-17T05:39:46.179Z,100.00
2023-03-17T05:42:14.337Z,100.00
2023-03-17T05:44:40.720Z,100.00
2023-03-17T05:47:08.731Z,100.00
2023-03-17T05:49:35.126Z,100.00
2023-03-17T05:52:01.652Z,100.00
2023-03-17T05:54:28.026Z,100.00
2023-03-17T05:56:54.362Z,100.00
2023-03-17T05:59:20.946Z,100.00
2023-03-17T06:01:47.328Z,100.00
2023-03-17T06:04:14.950Z,100.00
2023-03-17T06:06:41.368Z,100.00
2023-03-17T06:09:07.890Z,100.00
2023-03-17T06:11:34.427Z,100.00
2023-03-17T06:14:00.809Z,100.00
2023-03-17T06:16:29.751Z,100.00
2023-03-17T06:18:56.976Z,100.00
2023-03-17T06:21:23.561Z,100.00
2023-03-17T06:23:50.089Z,100.00
2023-03-17T06:26:16.908Z,100.00
2023-03-17T06:28:43.256Z,100.00
2023-03-17T06:31:09.719Z,100.00
2023-03-17T06:33:36.428Z,100.00
2023-03-17T06:36:03.044Z,100.00
2023-03-17T06:38:29.410Z,100.00
2023-03-17T06:40:58.637Z,100.00
2023-03-17T06:43:26.673Z,100.00
2023-03-17T06:45:53.027Z,100.00
2023-03-17T06:48:20.728Z,100.00
2023-03-17T06:50:47.316Z,100.00
2023-03-17T06:53:13.769Z,100.00
2023-03-17T06:55:40.378Z,100.00
2023-03-17T06:58:06.728Z,100.00
2023-03-17T07:00:33.161Z,100.00
2023-03-17T07:02:59.571Z,100.00
2023-03-17T07:05:26.358Z,100.00
2023-03-17T07:07:52.702Z,100.00
2023-03-17T07:10:19.266Z,100.00
2023-03-17T07:12:45.796Z,100.00
2023-03-17T07:15:12.928Z,100.00
2023-03-17T07:17:39.758Z,100.00
2023-03-17T07:20:08.859Z,100.00
2023-03-17T07:22:35.226Z,100.00
2023-03-17T07:25:02.075Z,100.00
2023-03-17T07:27:28.717Z,100.00
2023-03-17T07:29:55.240Z,100.00
2023-03-17T07:32:21.693Z,100.00
2023-03-17T07:34:48.113Z,100.00
2023-03-17T07:37:14.738Z,100.00
2023-03-17T07:39:41.420Z,100.00
2023-03-17T07:42:08.044Z,100.00
2023-03-17T07:44:34.668Z,100.00
2023-03-17T07:47:01.030Z,100.00
2023-03-17T07:49:40.393Z,100.00
2023-03-17T07:52:09.940Z,100.00
2023-03-17T07:54:37.881Z,100.00
2023-03-17T07:57:05.530Z,100.00
2023-03-17T07:59:32.756Z,100.00
2023-03-17T08:01:59.366Z,100.00
2023-03-17T08:04:26.020Z,100.00
2023-03-17T08:06:52.395Z,100.00
2023-03-17T08:09:19.173Z,100.00
2023-03-17T08:11:45.542Z,100.00
2023-03-17T08:14:12.231Z,100.00
2023-03-17T08:16:38.856Z,100.00
2023-03-17T08:19:05.607Z,100.00
2023-03-17T08:21:32.240Z,100.00
2023-03-17T08:24:06.314Z,100.00
2023-03-17T08:26:32.712Z,100.00
2023-03-17T08:28:59.410Z,100.00
2023-03-17T08:31:26.910Z,100.00
2023-03-17T08:33:54.504Z,100.00
2023-03-17T08:36:21.447Z,100.00
2023-03-17T08:38:48.976Z,100.00
2023-03-17T08:41:18.995Z,100.00
2023-03-17T08:43:46.076Z,100.00
2023-03-17T08:46:27.614Z,100.00
2023-03-17T08:48:55.130Z,100.00
2023-03-17T08:51:24.463Z,100.00
2023-03-17T08:53:52.306Z,100.00
2023-03-17T08:56:18.858Z,100.00
2023-03-17T08:58:46.072Z,100.00
2023-03-17T09:01:15.226Z,100.00
2023-03-17T09:03:42.562Z,99.50
2023-03-17T09:06:10.724Z,99.96
2023-03-17T09:08:38.741Z,92.78
2023-03-17T09:11:06.463Z,83.13
2023-03-17T09:13:34.182Z,86.90
2023-03-17T09:16:01.059Z,89.65
2023-03-17T09:18:28.804Z,85.44
2023-03-17T09:20:55.293Z,84.96
2023-03-17T09:23:21.841Z,84.41
2023-03-17T09:25:48.159Z,77.10
2023-03-17T09:28:14.681Z,68.61
2023-03-17T09:30:42.471Z,69.40
2023-03-17T09:33:11.284Z,71.60
2023-03-17T09:35:38.429Z,66.19
2023-03-17T09:38:04.885Z,62.19
2023-03-17T09:40:36.198Z,61.36
2023-03-17T09:43:24.663Z,61.65
2023-03-17T09:45:51.955Z,60.85
2023-03-17T09:48:47.288Z,56.43
2023-03-17T09:51:18.328Z,51.98
2023-03-17T09:53:54.449Z,50.54
2023-03-17T09:56:21.018Z,49.69
2023-03-17T09:58:54.371Z,50.28
2023-03-17T10:01:22.108Z,50.47
2023-03-17T10:03:48.692Z,47.48
2023-03-17T10:06:23.909Z,45.39
2023-03-17T10:09:30.696Z,43.80
2023-03-17T10:12:39.949Z,42.75
2023-03-17T10:15:35.341Z,42.30
2023-03-17T10:18:12.581Z,42.27
2023-03-17T10:20:51.086Z,42.87
2023-03-17T10:23:22.080Z,43.17
2023-03-17T10:25:48.650Z,43.33
2023-03-17T10:28:35.146Z,43.35
2023-03-17T10:31:13.524Z,44.65
2023-03-17T10:33:39.972Z,45.54
2023-03-17T10:36:11.236Z,43.40
2023-03-17T10:38:37.769Z,42.88
2023-03-17T10:41:16.076Z,41.03
2023-03-17T10:43:46.619Z,41.02
2023-03-17T10:46:24.714Z,39.64
2023-03-17T10:48:57.385Z,39.91
2023-03-17T10:51:32.629Z,39.30
2023-03-17T10:54:09.510Z,39.72
2023-03-17T10:56:38.920Z,38.82
2023-03-17T10:59:17.827Z,40.03
2023-03-17T11:01:50.438Z,40.44
2023-03-17T11:04:36.228Z,40.82
2023-03-17T11:07:28.794Z,39.77
2023-03-17T11:10:01.901Z,40.48
2023-03-17T11:12:29.887Z,40.87
2023-03-17T11:15:01.629Z,40.42
2023-03-17T11:17:48.045Z,39.54
2023-03-17T11:20:34.899Z,39.41
2023-03-17T11:23:08.898Z,38.84
2023-03-17T11:25:42.146Z,39.76
2023-03-17T11:28:28.091Z,40.33
2023-03-17T11:31:05.111Z,38.96
2023-03-17T11:33:57.256Z,37.83
2023-03-17T11:36:40.670Z,38.02
2023-03-17T11:39:20.509Z,39.47
2023-03-17T11:42:01.827Z,39.54
2023-03-17T11:44:59.578Z,38.60
2023-03-17T11:47:26.074Z,37.65
2023-03-17T11:50:11.525Z,38.14
2023-03-17T11:53:02.455Z,37.03
2023-03-17T11:55:45.593Z,35.92
2023-03-17T11:58:27.173Z,34.83
2023-03-17T12:01:06.077Z,33.47
2023-03-17T12:03:56.842Z,33.85
2023-03-17T12:06:30.877Z,34.36
2023-03-17T12:09:13.653Z,33.45
2023-03-17T12:11:44.811Z,32.17
2023-03-17T12:14:34.119Z,33.00
2023-03-17T12:17:09.682Z,32.43
2023-03-17T12:19:54.970Z,33.39
2023-03-17T12:22:27.356Z,33.61
2023-03-17T12:24:53.680Z,32.92
2023-03-17T12:27:33.864Z,33.06
2023-03-17T12:30:08.355Z,32.03
2023-03-17T12:32:56.216Z,32.17
2023-03-17T12:35:33.486Z,31.41
2023-03-17T12:38:06.043Z,32.91
2023-03-17T12:40:38.797Z,30.18
2023-03-17T12:43:34.914Z,28.69
2023-03-17T12:46:12.023Z,29.11
2023-03-17T12:49:14.954Z,29.02
2023-03-17T12:51:52.473Z,29.01
2023-03-17T12:54:28.752Z,28.25
2023-03-17T12:57:03.025Z,28.40
2023-03-17T12:59:29.724Z,27.51
2023-03-17T13:02:21.120Z,24.92
2023-03-17T13:04:50.962Z,26.05
2023-03-17T13:07:26.934Z,26.15
2023-03-17T13:09:53.336Z,25.11
2023-03-17T13:12:41.180Z,26.00
2023-03-17T13:15:22.958Z,24.85
2023-03-17T13:17:49.924Z,25.39
2023-03-17T13:20:19.467Z,25.62
2023-03-17T13:23:13.754Z,25.12
2023-03-17T13:25:40.605Z,25.05
2023-03-17T13:28:13.644Z,25.86
2023-03-17T13:30:39.989Z,26.29
2023-03-17T13:33:09.638Z,26.26
2023-03-17T13:35:59.977Z,27.12
2023-03-17T13:38:35.342Z,27.69
2023-03-17T13:41:17.129Z,27.06
2023-03-17T13:43:56.316Z,26.81
2023-03-17T13:46:38.403Z,26.82
2023-03-17T13:49:20.253Z,27.25
2023-03-17T13:52:08.236Z,26.16
2023-03-17T13:54:48.088Z,26.01
2023-03-17T13:57:41.355Z,26.34
2023-03-17T14:00:26.989Z,26.66
2023-03-17T14:03:02.109Z,25.34
2023-03-17T14:05:32.923Z,25.65
2023-03-17T14:08:03.787Z,25.44
2023-03-17T14:10:33.335Z,26.49
2023-03-17T14:13:23.746Z,27.02
2023-03-17T14:16:14.960Z,27.60
2023-03-17T14:18:57.510Z,26.21
2023-03-17T14:21:33.323Z,26.54
2023-03-17T14:24:03.066Z,26.86
2023-03-17T14:26:31.970Z,28.29
2023-03-17T14:29:04.031Z,27.99
2023-03-17T14:31:30.853Z,28.08
2023-03-17T14:33:59.491Z,28.49
2023-03-17T14:36:28.968Z,28.99
2023-03-17T14:38:57.159Z,30.13
2023-03-17T14:41:25.870Z,31.06
2023-03-17T14:43:57.170Z,32.15
2023-03-17T14:46:31.521Z,32.16
2023-03-17T14:49:01.903Z,32.39
2023-03-17T14:51:37.821Z,32.87
2023-03-17T14:54:26.838Z,31.94
2023-03-17T14:56:56.966Z,32.33
2023-03-17T14:59:36.834Z,32.84
2023-03-17T15:02:20.869Z,34.11
2023-03-17T15:04:53.898Z,34.09
2023-03-17T15:07:37.069Z,33.21
2023-03-17T15:10:06.754Z,33.92
2023-03-17T15:12:33.808Z,34.56
2023-03-17T15:15:08.941Z,35.00
2023-03-17T15:17:36.996Z,34.57
2023-03-17T15:20:15.932Z,35.42
2023-03-17T15:22:49.981Z,36.18
2023-03-17T15:25:27.120Z,36.40
2023-03-17T15:27:56.103Z,36.73
2023-03-17T15:30:27.469Z,38.03
2023-03-17T15:33:01.851Z,37.61
2023-03-17T15:35:29.717Z,37.90
2023-03-17T15:37:56.290Z,38.59
2023-03-17T15:40:22.834Z,39.43
2023-03-17T15:42:49.266Z,41.08
2023-03-17T15:45:17.060Z,41.07
2023-03-17T15:47:45.547Z,40.65
2023-03-17T15:50:17.471Z,41.40
2023-03-17T15:52:44.728Z,41.22
2023-03-17T15:55:21.980Z,42.39
2023-03-17T15:57:54.856Z,43.11
2023-03-17T16:00:23.866Z,44.47
2023-03-17T16:03:15.537Z,45.92
2023-03-17T16:05:45.123Z,46.31
2023-03-17T16:08:14.131Z,49.03
2023-03-17T16:10:42.691Z,50.57
2023-03-17T16:13:09.450Z,51.33
2023-03-17T16:15:43.220Z,50.29
2023-03-17T16:18:19.135Z,52.39
2023-03-17T16:20:50.681Z,53.38
2023-03-17T16:23:23.228Z,55.55
2023-03-17T16:25:50.762Z,58.02
2023-03-17T16:28:20.180Z,58.33
2023-03-17T16:30:49.645Z,60.36
2023-03-17T16:33:45.753Z,59.71
2023-03-17T16:36:17.933Z,61.63
2023-03-17T16:38:45.966Z,64.39
2023-03-17T16:41:20.578Z,63.75
2023-03-17T16:43:50.371Z,65.48
2023-03-17T16:46:18.079Z,69.38
2023-03-17T16:48:44.588Z,71.91
2023-03-17T16:51:11.017Z,72.37
2023-03-17T16:53:38.147Z,76.16
2023-03-17T16:56:13.670Z,80.06
2023-03-17T16:58:41.244Z,82.05
2023-03-17T17:01:13.766Z,82.21
2023-03-17T17:03:41.054Z,83.72
2023-03-17T17:06:08.216Z,84.02
2023-03-17T17:08:41.611Z,84.79
2023-03-17T17:11:08.553Z,87.17
2023-03-17T17:13:35.687Z,87.18
2023-03-17T17:16:03.928Z,86.58
2023-03-17T17:18:30.422Z,88.45
2023-03-17T17:20:57.179Z,90.37
2023-03-17T17:23:26.128Z,92.91
2023-03-17T17:25:54.023Z,93.72
2023-03-17T17:28:23.484Z,95.78
2023-03-17T17:30:51.812Z,97.39
2023-03-17T17:33:19.280Z,97.64
2023-03-17T17:35:46.880Z,97.22
2023-03-17T17:38:23.199Z,98.56
2023-03-17T17:40:50.051Z,98.78
2023-03-17T17:43:21.136Z,100.00
2023-03-17T17:45:48.160Z,100.00
2023-03-17T17:48:19.217Z,100.00
2023-03-17T17:50:45.978Z,100.00
2023-03-17T17:53:12.622Z,100.00
2023-03-17T17:55:43.287Z,100.00
2023-03-17T17:58:12.667Z,100.00
2023-03-17T18:00:39.144Z,100.00
2023-03-17T18:03:05.544Z,100.00
2023-03-17T18:05:31.994Z,100.00
2023-03-17T18:07:59.925Z,100.00
2023-03-17T18:10:27.155Z,100.00
2023-03-17T18:12:53.969Z,100.00
2023-03-17T18:15:21.425Z,100.00
2023-03-17T18:17:48.191Z,100.00
2023-03-17T18:20:18.456Z,100.00
2023-03-17T18:22:44.928Z,100.00
2023-03-17T18:25:13.056Z,100.00
2023-03-17T18:27:39.754Z,100.00
2023-03-17T18:30:11.486Z,100.00
2023-03-17T18:32:39.420Z,100.00
2023-03-17T18:35:10.608Z,100.00
2023-03-17T18:37:37.439Z,100.00
2023-03-17T18:40:15.833Z,100.00
2023-03-17T18:42:44.418Z,100.00
2023-03-17T18:45:11.845Z,100.00
2023-03-17T18:47:39.732Z,100.00
2023-03-17T18:50:06.746Z,100.00
2023-03-17T18:52:34.627Z,100.00
2023-03-17T18:55:01.348Z,100.00
2023-03-17T18:57:28.293Z,100.00
2023-03-17T18:59:55.506Z,100.00
2023-03-17T19:02:22.200Z,100.00
2023-03-17T19:04:48.919Z,100.00
2023-03-17T19:07:17.117Z,100.00
2023-03-17T19:09:44.689Z,100.00
2023-03-17T19:12:11.238Z,100.00
2023-03-17T19:14:38.061Z,100.00
2023-03-17T19:17:05.557Z,100.00
2023-03-17T19:19:34.183Z,100.00
2023-03-17T19:22:03.309Z,100.00
2023-03-17T19:24:30.270Z,100.00
2023-03-17T19:26:56.637Z,100.00
2023-03-17T19:29:24.254Z,100.00
2023-03-17T19:31:50.694Z,100.00
2023-03-17T19:34:17.196Z,100.00
2023-03-17T19:36:44.606Z,100.00
2023-03-17T19:39:12.226Z,100.00
2023-03-17T19:41:39.078Z,100.00
2023-03-17T19:44:06.835Z,100.00
2023-03-17T19:46:34.619Z,100.00
2023-03-17T19:49:01.068Z,100.00
2023-03-17T19:51:28.247Z,100.00
2023-03-17T19:53:57.552Z,100.00
2023-03-17T19:56:24.337Z,100.00
2023-03-17T19:58:52.717Z,100.00
2023-03-17T20:01:19.161Z,100.00
2023-03-17T20:03:45.668Z,100.00
2023-03-17T20:06:20.646Z,100.00
2023-03-17T20:08:47.554Z,100.00
2023-03-17T20:11:13.957Z,100.00
2023-03-17T20:13:41.013Z,100.00
2023-03-17T20:16:09.000Z,100.00
2023-03-17T20:18:37.437Z,100.00
2023-03-17T20:21:04.508Z,100.00
2023-03-17T20:23:31.271Z,100.00
2023-03-17T20:25:57.714Z,100.00
2023-03-17T20:28:24.050Z,100.00
2023-03-17T20:30:50.708Z,100.00
2023-03-17T20:33:19.777Z,100.00
2023-03-17T20:35:46.822Z,100.00
2023-03-17T20:38:13.565Z,100.00
2023-03-17T20:40:40.533Z,100.00
2023-03-17T20:43:08.925Z,100.00
2023-03-17T20:45:35.550Z,100.00
2023-03-17T20:48:02.110Z,100.00
2023-03-17T20:50:30.574Z,100.00
2023-03-17T20:52:57.142Z,100.00
2023-03-17T20:55:23.591Z,100.00
2023-03-17T20:57:49.954Z,100.00
2023-03-17T21:00:19.107Z,100.00
2023-03-17T21:02:47.134Z,100.00
2023-03-17T21:05:25.694Z,100.00
2023-03-17T21:07:52.069Z,100.00
2023-03-17T21:10:19.388Z,100.00
2023-03-17T21:12:45.811Z,100.00
2023-03-17T21:15:14.083Z,100.00
2023-03-17T21:17:43.351Z,100.00
2023-03-17T21:20:12.146Z,100.00
2023-03-17T21:22:38.540Z,100.00
2023-03-17T21:25:05.433Z,100.00
2023-03-17T21:27:32.513Z,100.00
2023-03-17T21:29:58.968Z,100.00
2023-03-17T21:32:25.261Z,100.00
2023-03-17T21:34:51.859Z,100.00
2023-03-17T21:37:18.366Z,100.00
2023-03-17T21:39:45.046Z,100.00
2023-03-17T21:42:11.986Z,100.00
2023-03-17T21:44:39.353Z,100.00
2023-03-17T21:47:05.781Z,100.00
2023-03-17T21:49:32.260Z,100.00
2023-03-17T21:51:58.701Z,100.00
2023-03-17T21:54:25.374Z,100.00
2023-03-17T21:56:51.824Z,100.00
2023-03-17T21:59:18.150Z,100.00
2023-03-17T22:01:44.863Z,100.00
2023-03-17T22:04:11.787Z,100.00
2023-03-17T22:06:38.190Z,100.00
2023-03-17T22:09:04.599Z,100.00
2023-03-17T22:11:31.332Z,100.00
2023-03-17T22:13:59.047Z,100.00
2023-03-17T22:16:25.749Z,100.00
2023-03-17T22:18:52.192Z,100.00
2023-03-17T22:21:19.106Z,100.00
2023-03-17T22:23:45.589Z,100.00
2023-03-17T22:26:14.509Z,100.00
2023-03-17T22:28:45.888Z,100.00
2023-03-17T22:31:16.504Z,100.00
2023-03-17T22:33:43.277Z,100.00
2023-03-17T22:36:10.525Z,100.00
2023-03-17T22:38:37.156Z,100.00
2023-03-17T22:41:07.001Z,100.00
2023-03-17T22:43:34.496Z,100.00
2023-03-17T22:46:00.892Z,100.00
2023-03-17T22:48:28.445Z,100.00
2023-03-17T22:50:54.931Z,100.00
2023-03-17T22:53:21.429Z,100.00
2023-03-17T22:55:47.815Z,100.00
2023-03-17T22:58:14.386Z,100.00
2023-03-17T23:00:40.998Z,100.00
2023-03-17T23:03:07.558Z,100.00
2023-03-17T23:05:33.901Z,100.00
2023-03-17T23:08:00.261Z,100.00
2023-03-17T23:10:26.603Z,100.00
2023-03-17T23:12:53.006Z,100.00
2023-03-17T23:15:20.228Z,100.00
2023-03-17T23:17:47.073Z,100.00
2023-03-17T23:20:14.306Z,100.00
2023-03-17T23:22:40.792Z,100.00
2023-03-17T23:25:08.132Z,100.00
2023-03-17T23:27:34.478Z,100.00
2023-03-17T23:30:01.141Z,100.00
2023-03-17T23:32:28.539Z,100.00
2023-03-17T23:34:55.225Z,100.00
2023-03-17T23:37:22.831Z,100.00
2023-03-17T23:39:49.276Z,100.00
2023-03-17T23:42:15.795Z,100.00
2023-03-17T23:44:42.254Z,100.00
2023-03-17T23:47:08.751Z,100.00
2023-03-17T23:49:35.449Z,100.00
2023-03-17T23:52:01.923Z,100.00
2023-03-17T23:54:28.299Z,100.00
2023-03-17T23:56:54.592Z,100.00
2023-03-17T23:59:21.264Z,100.00
